sensor_id;sensor_type;location;lat;lon;timestamp;P1;durP1;ratioP1;P2;durP2;ratioP2
39956;SDS011;48483;44.640;7.494;2024-03-23T00:53:43;31.00;;;21.25;;
39956;SDS011;48483;44.640;7.494;2024-03-23T00:56:10;30.70;;;22.98;;
39956;SDS011;48483;44.640;7.494;2024-03-23T00:58:37;35.80;;;23.17;;
39956;SDS011;48483;44.640;7.494;2024-03-23T01:01:03;33.70;;;22.13;;
39956;SDS011;48483;44.640;7.494;2024-03-23T01:03:30;36.63;;;23.10;;
39956;SDS011;48483;44.640;7.494;2024-03-23T01:05:58;40.08;;;24.05;;
39956;SDS011;48483;44.640;7.494;2024-03-23T01:08:25;33.80;;;22.48;;
39956;SDS011;48483;44.640;7.494;2024-03-23T01:10:56;38.50;;;24.35;;
39956;SDS011;48483;44.640;7.494;2024-03-23T01:13:24;37.85;;;22.23;;
39956;SDS011;48483;44.640;7.494;2024-03-23T01:15:51;37.47;;;23.98;;
39956;SDS011;48483;44.640;7.494;2024-03-23T01:18:18;39.22;;;23.65;;
39956;SDS011;48483;44.640;7.494;2024-03-23T01:20:45;36.20;;;24.40;;
39956;SDS011;48483;44.640;7.494;2024-03-23T01:23:12;34.25;;;23.05;;
39956;SDS011;48483;44.640;7.494;2024-03-23T01:25:39;32.90;;;23.02;;
39956;SDS011;48483;44.640;7.494;2024-03-23T01:28:08;35.22;;;23.52;;
39956;SDS011;48483;44.640;7.494;2024-03-23T01:30:35;31.80;;;22.27;;
39956;SDS011;48483;44.640;7.494;2024-03-23T01:33:02;36.53;;;22.92;;
39956;SDS011;48483;44.640;7.494;2024-03-23T01:35:28;36.65;;;24.63;;
39956;SDS011;48483;44.640;7.494;2024-03-23T01:37:55;35.35;;;21.85;;
39956;SDS011;48483;44.640;7.494;2024-03-23T01:40:22;31.27;;;21.23;;
39956;SDS011;48483;44.640;7.494;2024-03-23T01:42:55;33.17;;;22.38;;
39956;SDS011;48483;44.640;7.494;2024-03-23T01:45:23;35.75;;;21.90;;
39956;SDS011;48483;44.640;7.494;2024-03-23T01:47:50;32.83;;;21.50;;
39956;SDS011;48483;44.640;7.494;2024-03-23T01:50:18;36.95;;;22.88;;
39956;SDS011;48483;44.640;7.494;2024-03-23T01:52:46;32.55;;;22.05;;
39956;SDS011;48483;44.640;7.494;2024-03-23T01:55:12;31.42;;;21.92;;
39956;SDS011;48483;44.640;7.494;2024-03-23T01:57:39;41.60;;;26.52;;
39956;SDS011;48483;44.640;7.494;2024-03-23T02:00:06;35.60;;;23.55;;
39956;SDS011;48483;44.640;7.494;2024-03-23T02:02:44;34.70;;;23.55;;
39956;SDS011;48483;44.640;7.494;2024-03-23T02:05:11;35.33;;;23.38;;
39956;SDS011;48483;44.640;7.494;2024-03-23T02:07:38;35.75;;;23.40;;
39956;SDS011;48483;44.640;7.494;2024-03-23T02:10:06;35.10;;;23.80;;
39956;SDS011;48483;44.640;7.494;2024-03-23T02:12:33;32.33;;;22.58;;
39956;SDS011;48483;44.640;7.494;2024-03-23T02:14:59;29.73;;;21.80;;
39956;SDS011;48483;44.640;7.494;2024-03-23T02:17:26;34.15;;;23.38;;
39956;SDS011;48483;44.640;7.494;2024-03-23T02:19:55;36.85;;;22.80;;
39956;SDS011;48483;44.640;7.494;2024-03-23T02:22:21;34.67;;;23.10;;
39956;SDS011;48483;44.640;7.494;2024-03-23T02:24:49;32.33;;;22.55;;
39956;SDS011;48483;44.640;7.494;2024-03-23T02:27:16;34.42;;;22.55;;
39956;SDS011;48483;44.640;7.494;2024-03-23T02:29:43;34.65;;;23.08;;
39956;SDS011;48483;44.640;7.494;2024-03-23T02:32:09;33.70;;;22.35;;
39956;SDS011;48483;44.640;7.494;2024-03-23T02:34:36;33.30;;;21.08;;
39956;SDS011;48483;44.640;7.494;2024-03-23T02:37:03;35.08;;;22.25;;
39956;SDS011;48483;44.640;7.494;2024-03-23T02:39:36;34.78;;;22.50;;
39956;SDS011;48483;44.640;7.494;2024-03-23T02:42:05;35.30;;;22.77;;
39956;SDS011;48483;44.640;7.494;2024-03-23T02:44:31;36.92;;;22.70;;
39956;SDS011;48483;44.640;7.494;2024-03-23T02:46:58;33.13;;;22.67;;
39956;SDS011;48483;44.640;7.494;2024-03-23T02:49:25;35.42;;;22.83;;
39956;SDS011;48483;44.640;7.494;2024-03-23T02:51:52;36.45;;;22.33;;
39956;SDS011;48483;44.640;7.494;2024-03-23T02:54:19;35.53;;;23.15;;
39956;SDS011;48483;44.640;7.494;2024-03-23T02:56:46;34.38;;;22.75;;
39956;SDS011;48483;44.640;7.494;2024-03-23T02:59:14;34.65;;;22.63;;
39956;SDS011;48483;44.640;7.494;2024-03-23T03:01:40;35.17;;;23.75;;
39956;SDS011;48483;44.640;7.494;2024-03-23T03:04:07;35.60;;;22.88;;
39956;SDS011;48483;44.640;7.494;2024-03-23T03:06:34;33.55;;;23.05;;
39956;SDS011;48483;44.640;7.494;2024-03-23T03:09:00;35.53;;;24.08;;
39956;SDS011;48483;44.640;7.494;2024-03-23T03:11:27;37.03;;;22.85;;
39956;SDS011;48483;44.640;7.494;2024-03-23T03:13:54;33.65;;;22.33;;
39956;SDS011;48483;44.640;7.494;2024-03-23T03:16:22;38.10;;;24.70;;
39956;SDS011;48483;44.640;7.494;2024-03-23T03:18:49;34.10;;;24.42;;
39956;SDS011;48483;44.640;7.494;2024-03-23T03:21:15;39.35;;;21.73;;
39956;SDS011;48483;44.640;7.494;2024-03-23T03:23:42;34.10;;;22.67;;
39956;SDS011;48483;44.640;7.494;2024-03-23T03:26:10;30.48;;;20.45;;
39956;SDS011;48483;44.640;7.494;2024-03-23T03:28:36;34.25;;;22.00;;
39956;SDS011;48483;44.640;7.494;2024-03-23T03:31:03;36.38;;;22.73;;
39956;SDS011;48483;44.640;7.494;2024-03-23T03:33:31;38.60;;;23.65;;
39956;SDS011;48483;44.640;7.494;2024-03-23T03:35:58;33.28;;;21.50;;
39956;SDS011;48483;44.640;7.494;2024-03-23T03:38:25;34.45;;;23.00;;
39956;SDS011;48483;44.640;7.494;2024-03-23T03:40:51;34.38;;;21.40;;
39956;SDS011;48483;44.640;7.494;2024-03-23T03:43:18;35.35;;;22.38;;
39956;SDS011;48483;44.640;7.494;2024-03-23T03:45:51;35.15;;;21.45;;
39956;SDS011;48483;44.640;7.494;2024-03-23T03:48:18;34.83;;;22.63;;
39956;SDS011;48483;44.640;7.494;2024-03-23T03:50:46;35.83;;;23.67;;
39956;SDS011;48483;44.640;7.494;2024-03-23T03:53:13;33.95;;;22.92;;
39956;SDS011;48483;44.640;7.494;2024-03-23T03:55:39;32.47;;;21.98;;
39956;SDS011;48483;44.640;7.494;2024-03-23T03:58:06;35.25;;;22.17;;
39956;SDS011;48483;44.640;7.494;2024-03-23T04:00:33;37.83;;;23.20;;
39956;SDS011;48483;44.640;7.494;2024-03-23T04:02:59;40.83;;;25.33;;
39956;SDS011;48483;44.640;7.494;2024-03-23T04:05:26;43.28;;;26.38;;
39956;SDS011;48483;44.640;7.494;2024-03-23T04:07:54;37.20;;;24.70;;
39956;SDS011;48483;44.640;7.494;2024-03-23T04:10:20;39.05;;;24.10;;
39956;SDS011;48483;44.640;7.494;2024-03-23T04:12:47;42.97;;;25.38;;
39956;SDS011;48483;44.640;7.494;2024-03-23T04:15:14;42.35;;;27.10;;
39956;SDS011;48483;44.640;7.494;2024-03-23T04:17:41;42.92;;;27.30;;
39956;SDS011;48483;44.640;7.494;2024-03-23T04:20:09;39.78;;;24.58;;
39956;SDS011;48483;44.640;7.494;2024-03-23T04:22:37;40.58;;;26.10;;
39956;SDS011;48483;44.640;7.494;2024-03-23T04:25:05;41.15;;;27.33;;
39956;SDS011;48483;44.640;7.494;2024-03-23T04:27:32;44.33;;;27.98;;
39956;SDS011;48483;44.640;7.494;2024-03-23T04:29:59;43.13;;;27.13;;
39956;SDS011;48483;44.640;7.494;2024-03-23T04:32:27;44.40;;;28.40;;
39956;SDS011;48483;44.640;7.494;2024-03-23T04:34:54;40.30;;;25.38;;
39956;SDS011;48483;44.640;7.494;2024-03-23T04:37:20;43.83;;;27.15;;
39956;SDS011;48483;44.640;7.494;2024-03-23T04:39:47;40.75;;;27.25;;
39956;SDS011;48483;44.640;7.494;2024-03-23T04:42:15;39.75;;;27.30;;
39956;SDS011;48483;44.640;7.494;2024-03-23T04:44:43;43.45;;;27.55;;
39956;SDS011;48483;44.640;7.494;2024-03-23T04:47:10;43.40;;;27.52;;
39956;SDS011;48483;44.640;7.494;2024-03-23T04:49:38;47.30;;;29.08;;
39956;SDS011;48483;44.640;7.494;2024-03-23T04:52:05;42.22;;;26.02;;
39956;SDS011;48483;44.640;7.494;2024-03-23T04:54:32;48.33;;;29.30;;
39956;SDS011;48483;44.640;7.494;2024-03-23T04:56:59;48.95;;;28.05;;
39956;SDS011;48483;44.640;7.494;2024-03-23T04:59:27;50.25;;;30.25;;
39956;SDS011;48483;44.640;7.494;2024-03-23T05:01:54;46.40;;;28.98;;
39956;SDS011;48483;44.640;7.494;2024-03-23T05:04:20;45.35;;;29.50;;
39956;SDS011;48483;44.640;7.494;2024-03-23T05:06:47;45.08;;;30.63;;
39956;SDS011;48483;44.640;7.494;2024-03-23T05:09:14;48.05;;;30.20;;
39956;SDS011;48483;44.640;7.494;2024-03-23T05:11:40;43.63;;;28.60;;
39956;SDS011;48483;44.640;7.494;2024-03-23T05:14:12;52.83;;;31.77;;
39956;SDS011;48483;44.640;7.494;2024-03-23T05:16:40;48.53;;;29.42;;
39956;SDS011;48483;44.640;7.494;2024-03-23T05:19:07;52.95;;;31.75;;
39956;SDS011;48483;44.640;7.494;2024-03-23T05:21:33;45.90;;;31.63;;
39956;SDS011;48483;44.640;7.494;2024-03-23T05:24:00;53.20;;;33.38;;
39956;SDS011;48483;44.640;7.494;2024-03-23T05:26:27;54.50;;;34.00;;
39956;SDS011;48483;44.640;7.494;2024-03-23T05:28:54;55.35;;;36.08;;
39956;SDS011;48483;44.640;7.494;2024-03-23T05:31:23;54.60;;;34.33;;
39956;SDS011;48483;44.640;7.494;2024-03-23T05:33:52;53.65;;;31.70;;
39956;SDS011;48483;44.640;7.494;2024-03-23T05:36:18;54.40;;;34.00;;
39956;SDS011;48483;44.640;7.494;2024-03-23T05:38:45;54.72;;;35.15;;
39956;SDS011;48483;44.640;7.494;2024-03-23T05:41:12;50.50;;;30.60;;
39956;SDS011;48483;44.640;7.494;2024-03-23T05:43:39;49.13;;;33.13;;
39956;SDS011;48483;44.640;7.494;2024-03-23T05:46:06;53.42;;;30.10;;
39956;SDS011;48483;44.640;7.494;2024-03-23T05:48:33;42.70;;;29.77;;
39956;SDS011;48483;44.640;7.494;2024-03-23T05:51:02;42.10;;;27.35;;
39956;SDS011;48483;44.640;7.494;2024-03-23T05:53:28;47.13;;;27.58;;
39956;SDS011;48483;44.640;7.494;2024-03-23T05:56:00;40.65;;;27.48;;
39956;SDS011;48483;44.640;7.494;2024-03-23T05:58:29;43.80;;;27.52;;
39956;SDS011;48483;44.640;7.494;2024-03-23T06:00:57;40.85;;;27.50;;
39956;SDS011;48483;44.640;7.494;2024-03-23T06:03:25;43.72;;;29.00;;
39956;SDS011;48483;44.640;7.494;2024-03-23T06:05:52;43.78;;;27.92;;
39956;SDS011;48483;44.640;7.494;2024-03-23T06:08:23;44.43;;;29.40;;
39956;SDS011;48483;44.640;7.494;2024-03-23T06:10:50;35.80;;;26.00;;
39956;SDS011;48483;44.640;7.494;2024-03-23T06:13:16;43.92;;;28.85;;
39956;SDS011;48483;44.640;7.494;2024-03-23T06:15:44;44.10;;;27.90;;
39956;SDS011;48483;44.640;7.494;2024-03-23T06:18:12;47.55;;;28.35;;
39956;SDS011;48483;44.640;7.494;2024-03-23T06:20:39;46.92;;;27.80;;
39956;SDS011;48483;44.640;7.494;2024-03-23T06:23:05;44.70;;;28.23;;
39956;SDS011;48483;44.640;7.494;2024-03-23T06:25:34;44.30;;;27.83;;
39956;SDS011;48483;44.640;7.494;2024-03-23T06:28:00;39.67;;;27.73;;
39956;SDS011;48483;44.640;7.494;2024-03-23T06:30:29;45.35;;;28.30;;
39956;SDS011;48483;44.640;7.494;2024-03-23T06:32:55;42.85;;;26.55;;
39956;SDS011;48483;44.640;7.494;2024-03-23T06:35:22;43.08;;;25.92;;
39956;SDS011;48483;44.640;7.494;2024-03-23T06:37:48;47.10;;;28.55;;
39956;SDS011;48483;44.640;7.494;2024-03-23T06:40:15;39.90;;;26.23;;
39956;SDS011;48483;44.640;7.494;2024-03-23T06:42:43;44.55;;;26.55;;
39956;SDS011;48483;44.640;7.494;2024-03-23T06:45:10;39.67;;;27.27;;
39956;SDS011;48483;44.640;7.494;2024-03-23T06:47:37;42.97;;;28.08;;
39956;SDS011;48483;44.640;7.494;2024-03-23T06:50:04;43.90;;;27.20;;
39956;SDS011;48483;44.640;7.494;2024-03-23T06:52:32;40.20;;;27.45;;
39956;SDS011;48483;44.640;7.494;2024-03-23T06:54:58;43.20;;;26.55;;
39956;SDS011;48483;44.640;7.494;2024-03-23T06:57:25;42.47;;;26.20;;
39956;SDS011;48483;44.640;7.494;2024-03-23T06:59:53;45.85;;;28.45;;
39956;SDS011;48483;44.640;7.494;2024-03-23T07:02:20;44.20;;;29.52;;
39956;SDS011;48483;44.640;7.494;2024-03-23T07:04:46;41.95;;;28.02;;
39956;SDS011;48483;44.640;7.494;2024-03-23T07:07:13;40.58;;;27.48;;
39956;SDS011;48483;44.640;7.494;2024-03-23T07:09:39;37.78;;;27.58;;
39956;SDS011;48483;44.640;7.494;2024-03-23T07:12:06;37.50;;;25.95;;
39956;SDS011;48483;44.640;7.494;2024-03-23T07:14:33;42.90;;;28.75;;
39956;SDS011;48483;44.640;7.494;2024-03-23T07:17:01;38.70;;;27.30;;
39956;SDS011;48483;44.640;7.494;2024-03-23T07:19:28;44.45;;;28.63;;
39956;SDS011;48483;44.640;7.494;2024-03-23T07:21:54;37.65;;;25.30;;
39956;SDS011;48483;44.640;7.494;2024-03-23T07:24:21;34.42;;;24.08;;
39956;SDS011;48483;44.640;7.494;2024-03-23T07:26:48;34.38;;;22.83;;
39956;SDS011;48483;44.640;7.494;2024-03-23T07:29:15;36.88;;;23.85;;
39956;SDS011;48483;44.640;7.494;2024-03-23T07:31:42;34.55;;;23.17;;
39956;SDS011;48483;44.640;7.494;2024-03-23T07:34:10;30.73;;;20.30;;
39956;SDS011;48483;44.640;7.494;2024-03-23T07:36:37;33.75;;;19.73;;
39956;SDS011;48483;44.640;7.494;2024-03-23T07:39:03;27.17;;;20.67;;
39956;SDS011;48483;44.640;7.494;2024-03-23T07:41:30;33.47;;;18.67;;
39956;SDS011;48483;44.640;7.494;2024-03-23T07:43:56;30.65;;;19.58;;
39956;SDS011;48483;44.640;7.494;2024-03-23T07:46:23;28.05;;;18.58;;
39956;SDS011;48483;44.640;7.494;2024-03-23T07:48:51;26.40;;;18.85;;
39956;SDS011;48483;44.640;7.494;2024-03-23T07:51:19;29.35;;;18.85;;
39956;SDS011;48483;44.640;7.494;2024-03-23T07:53:47;29.40;;;18.83;;
39956;SDS011;48483;44.640;7.494;2024-03-23T07:56:15;24.40;;;17.95;;
39956;SDS011;48483;44.640;7.494;2024-03-23T07:58:42;27.05;;;17.40;;
39956;SDS011;48483;44.640;7.494;2024-03-23T08:01:09;27.60;;;17.92;;
39956;SDS011;48483;44.640;7.494;2024-03-23T08:03:36;28.27;;;19.90;;
39956;SDS011;48483;44.640;7.494;2024-03-23T08:06:08;32.83;;;21.73;;
39956;SDS011;48483;44.640;7.494;2024-03-23T08:08:37;33.03;;;22.27;;
39956;SDS011;48483;44.640;7.494;2024-03-23T08:11:04;35.55;;;23.15;;
39956;SDS011;48483;44.640;7.494;2024-03-23T08:13:31;35.20;;;24.08;;
39956;SDS011;48483;44.640;7.494;2024-03-23T08:15:58;35.35;;;24.60;;
39956;SDS011;48483;44.640;7.494;2024-03-23T08:18:25;35.80;;;22.95;;
39956;SDS011;48483;44.640;7.494;2024-03-23T08:20:55;32.58;;;22.40;;
39956;SDS011;48483;44.640;7.494;2024-03-23T08:23:23;34.35;;;24.20;;
39956;SDS011;48483;44.640;7.494;2024-03-23T08:25:51;31.55;;;22.00;;
39956;SDS011;48483;44.640;7.494;2024-03-23T08:28:18;35.38;;;22.67;;
39956;SDS011;48483;44.640;7.494;2024-03-23T08:30:45;37.40;;;25.17;;
39956;SDS011;48483;44.640;7.494;2024-03-23T08:33:12;38.67;;;25.42;;
39956;SDS011;48483;44.640;7.494;2024-03-23T08:35:38;37.45;;;26.45;;
39956;SDS011;48483;44.640;7.494;2024-03-23T08:38:05;38.75;;;26.45;;
39956;SDS011;48483;44.640;7.494;2024-03-23T08:40:31;39.25;;;26.70;;
39956;SDS011;48483;44.640;7.494;2024-03-23T08:42:59;38.55;;;27.60;;
39956;SDS011;48483;44.640;7.494;2024-03-23T08:45:26;33.85;;;23.88;;
39956;SDS011;48483;44.640;7.494;2024-03-23T08:47:53;36.97;;;25.50;;
39956;SDS011;48483;44.640;7.494;2024-03-23T08:50:19;39.70;;;27.73;;
39956;SDS011;48483;44.640;7.494;2024-03-23T08:52:48;37.75;;;26.77;;
39956;SDS011;48483;44.640;7.494;2024-03-23T08:55:17;34.50;;;25.75;;
39956;SDS011;48483;44.640;7.494;2024-03-23T08:57:43;41.33;;;28.30;;
39956;SDS011;48483;44.640;7.494;2024-03-23T09:00:12;40.90;;;28.38;;
39956;SDS011;48483;44.640;7.494;2024-03-23T09:02:40;41.28;;;28.25;;
39956;SDS011;48483;44.640;7.494;2024-03-23T09:05:07;43.53;;;29.23;;
39956;SDS011;48483;44.640;7.494;2024-03-23T09:07:34;42.45;;;28.30;;
39956;SDS011;48483;44.640;7.494;2024-03-23T09:10:00;39.80;;;28.88;;
39956;SDS011;48483;44.640;7.494;2024-03-23T09:12:27;38.53;;;27.27;;
39956;SDS011;48483;44.640;7.494;2024-03-23T09:14:53;38.88;;;27.90;;
39956;SDS011;48483;44.640;7.494;2024-03-23T09:17:21;40.97;;;29.38;;
39956;SDS011;48483;44.640;7.494;2024-03-23T09:19:48;35.88;;;28.02;;
39956;SDS011;48483;44.640;7.494;2024-03-23T09:22:14;39.45;;;27.77;;
39956;SDS011;48483;44.640;7.494;2024-03-23T09:24:41;36.45;;;26.70;;
39956;SDS011;48483;44.640;7.494;2024-03-23T09:27:08;44.13;;;29.90;;
39956;SDS011;48483;44.640;7.494;2024-03-23T09:29:34;41.53;;;28.70;;
39956;SDS011;48483;44.640;7.494;2024-03-23T09:32:01;43.45;;;26.73;;
39956;SDS011;48483;44.640;7.494;2024-03-23T09:34:29;39.72;;;27.02;;
39956;SDS011;48483;44.640;7.494;2024-03-23T09:36:56;38.47;;;26.42;;
39956;SDS011;48483;44.640;7.494;2024-03-23T09:39:22;41.28;;;27.13;;
39956;SDS011;48483;44.640;7.494;2024-03-23T09:41:49;38.20;;;26.85;;
39956;SDS011;48483;44.640;7.494;2024-03-23T09:44:16;37.58;;;27.05;;
39956;SDS011;48483;44.640;7.494;2024-03-23T09:46:43;33.50;;;24.80;;
39956;SDS011;48483;44.640;7.494;2024-03-23T09:49:09;36.75;;;24.42;;
39956;SDS011;48483;44.640;7.494;2024-03-23T09:51:38;42.05;;;26.52;;
39956;SDS011;48483;44.640;7.494;2024-03-23T09:54:04;37.63;;;25.30;;
39956;SDS011;48483;44.640;7.494;2024-03-23T09:56:31;41.58;;;25.90;;
39956;SDS011;48483;44.640;7.494;2024-03-23T09:59:01;35.80;;;27.02;;
39956;SDS011;48483;44.640;7.494;2024-03-23T10:01:29;33.33;;;24.63;;
39956;SDS011;48483;44.640;7.494;2024-03-23T10:03:56;37.08;;;25.98;;
39956;SDS011;48483;44.640;7.494;2024-03-23T10:06:23;36.67;;;23.80;;
39956;SDS011;48483;44.640;7.494;2024-03-23T10:08:52;35.03;;;24.25;;
39956;SDS011;48483;44.640;7.494;2024-03-23T10:11:20;36.65;;;23.98;;
39956;SDS011;48483;44.640;7.494;2024-03-23T10:13:47;33.63;;;25.52;;
39956;SDS011;48483;44.640;7.494;2024-03-23T10:16:20;32.13;;;23.10;;
39956;SDS011;48483;44.640;7.494;2024-03-23T10:18:49;31.10;;;22.63;;
39956;SDS011;48483;44.640;7.494;2024-03-23T10:21:16;35.75;;;23.08;;
39956;SDS011;48483;44.640;7.494;2024-03-23T10:23:43;32.78;;;23.42;;
39956;SDS011;48483;44.640;7.494;2024-03-23T10:26:19;33.47;;;22.90;;
39956;SDS011;48483;44.640;7.494;2024-03-23T10:28:51;33.27;;;22.90;;
39956;SDS011;48483;44.640;7.494;2024-03-23T10:31:24;30.58;;;22.27;;
39956;SDS011;48483;44.640;7.494;2024-03-23T10:33:51;29.25;;;21.92;;
39956;SDS011;48483;44.640;7.494;2024-03-23T10:36:20;32.85;;;22.35;;
39956;SDS011;48483;44.640;7.494;2024-03-23T10:38:47;29.90;;;22.23;;
39956;SDS011;48483;44.640;7.494;2024-03-23T10:41:18;26.90;;;20.08;;
39956;SDS011;48483;44.640;7.494;2024-03-23T10:43:46;30.35;;;20.88;;
39956;SDS011;48483;44.640;7.494;2024-03-23T10:46:13;32.28;;;21.75;;
39956;SDS011;48483;44.640;7.494;2024-03-23T10:48:40;31.73;;;22.88;;
39956;SDS011;48483;44.640;7.494;2024-03-23T10:51:07;31.33;;;22.42;;
39956;SDS011;48483;44.640;7.494;2024-03-23T10:53:34;29.05;;;21.95;;
39956;SDS011;48483;44.640;7.494;2024-03-23T10:56:03;32.58;;;20.73;;
39956;SDS011;48483;44.640;7.494;2024-03-23T10:58:33;32.92;;;21.58;;
39956;SDS011;48483;44.640;7.494;2024-03-23T11:01:04;32.47;;;23.50;;
39956;SDS011;48483;44.640;7.494;2024-03-23T11:03:31;30.60;;;22.63;;
39956;SDS011;48483;44.640;7.494;2024-03-23T11:05:59;33.97;;;22.90;;
39956;SDS011;48483;44.640;7.494;2024-03-23T11:08:32;30.83;;;22.60;;
39956;SDS011;48483;44.640;7.494;2024-03-23T11:11:13;30.80;;;21.88;;
39956;SDS011;48483;44.640;7.494;2024-03-23T11:13:47;36.95;;;21.70;;
39956;SDS011;48483;44.640;7.494;2024-03-23T11:18:41;32.72;;;23.88;;
39956;SDS011;48483;44.640;7.494;2024-03-23T11:21:09;30.90;;;21.75;;
39956;SDS011;48483;44.640;7.494;2024-03-23T11:23:36;33.28;;;23.02;;
39956;SDS011;48483;44.640;7.494;2024-03-23T11:26:06;35.83;;;23.10;;
39956;SDS011;48483;44.640;7.494;2024-03-23T11:28:34;30.80;;;22.80;;
39956;SDS011;48483;44.640;7.494;2024-03-23T11:31:02;30.45;;;21.52;;
39956;SDS011;48483;44.640;7.494;2024-03-23T11:33:36;29.70;;;21.65;;
39956;SDS011;48483;44.640;7.494;2024-03-23T11:36:02;33.40;;;22.70;;
39956;SDS011;48483;44.640;7.494;2024-03-23T11:38:30;32.13;;;21.35;;
39956;SDS011;48483;44.640;7.494;2024-03-23T11:41:03;33.80;;;20.52;;
39956;SDS011;48483;44.640;7.494;2024-03-23T11:43:30;35.47;;;23.05;;
39956;SDS011;48483;44.640;7.494;2024-03-23T11:45:56;30.33;;;20.98;;
39956;SDS011;48483;44.640;7.494;2024-03-23T11:48:25;27.92;;;21.40;;
39956;SDS011;48483;44.640;7.494;2024-03-23T11:50:54;26.60;;;19.92;;
39956;SDS011;48483;44.640;7.494;2024-03-23T11:53:23;30.02;;;19.65;;
39956;SDS011;48483;44.640;7.494;2024-03-23T11:55:53;25.92;;;19.75;;
39956;SDS011;48483;44.640;7.494;2024-03-23T11:58:22;27.92;;;18.77;;
39956;SDS011;48483;44.640;7.494;2024-03-23T12:00:49;21.88;;;17.20;;
39956;SDS011;48483;44.640;7.494;2024-03-23T12:03:18;26.52;;;17.23;;
39956;SDS011;48483;44.640;7.494;2024-03-23T12:05:49;23.80;;;16.95;;
39956;SDS011;48483;44.640;7.494;2024-03-23T12:08:22;24.60;;;18.00;;
39956;SDS011;48483;44.640;7.494;2024-03-23T12:10:51;27.83;;;17.35;;
39956;SDS011;48483;44.640;7.494;2024-03-23T12:13:19;22.10;;;16.05;;
39956;SDS011;48483;44.640;7.494;2024-03-23T12:15:46;21.55;;;15.52;;
39956;SDS011;48483;44.640;7.494;2024-03-23T12:18:13;24.25;;;15.88;;
39956;SDS011;48483;44.640;7.494;2024-03-23T12:20:40;23.92;;;16.65;;
39956;SDS011;48483;44.640;7.494;2024-03-23T12:23:09;20.05;;;15.40;;
39956;SDS011;48483;44.640;7.494;2024-03-23T12:25:38;21.17;;;14.18;;
39956;SDS011;48483;44.640;7.494;2024-03-23T12:28:06;20.30;;;16.08;;
39956;SDS011;48483;44.640;7.494;2024-03-23T12:30:33;23.60;;;14.15;;
39956;SDS011;48483;44.640;7.494;2024-03-23T12:33:01;21.70;;;15.40;;
39956;SDS011;48483;44.640;7.494;2024-03-23T12:35:29;20.38;;;14.73;;
39956;SDS011;48483;44.640;7.494;2024-03-23T12:37:55;17.48;;;12.95;;
39956;SDS011;48483;44.640;7.494;2024-03-23T12:40:24;19.00;;;13.95;;
39956;SDS011;48483;44.640;7.494;2024-03-23T12:42:51;21.20;;;15.43;;
39956;SDS011;48483;44.640;7.494;2024-03-23T12:45:17;18.02;;;13.43;;
39956;SDS011;48483;44.640;7.494;2024-03-23T12:47:44;20.40;;;15.77;;
39956;SDS011;48483;44.640;7.494;2024-03-23T12:50:11;19.15;;;14.55;;
39956;SDS011;48483;44.640;7.494;2024-03-23T12:52:37;17.98;;;13.30;;
39956;SDS011;48483;44.640;7.494;2024-03-23T12:55:04;19.92;;;14.73;;
39956;SDS011;48483;44.640;7.494;2024-03-23T12:57:33;20.27;;;13.20;;
39956;SDS011;48483;44.640;7.494;2024-03-23T12:59:59;20.45;;;14.23;;
39956;SDS011;48483;44.640;7.494;2024-03-23T13:02:26;17.15;;;13.07;;
39956;SDS011;48483;44.640;7.494;2024-03-23T13:04:53;18.73;;;13.40;;
39956;SDS011;48483;44.640;7.494;2024-03-23T13:07:20;16.92;;;13.90;;
39956;SDS011;48483;44.640;7.494;2024-03-23T13:09:49;20.67;;;14.07;;
39956;SDS011;48483;44.640;7.494;2024-03-23T13:12:17;18.25;;;13.45;;
39956;SDS011;48483;44.640;7.494;2024-03-23T13:14:48;15.60;;;13.82;;
39956;SDS011;48483;44.640;7.494;2024-03-23T13:17:15;17.13;;;12.68;;
39956;SDS011;48483;44.640;7.494;2024-03-23T13:19:42;17.10;;;12.27;;
39956;SDS011;48483;44.640;7.494;2024-03-23T13:22:09;18.05;;;14.38;;
39956;SDS011;48483;44.640;7.494;2024-03-23T13:24:37;18.60;;;13.75;;
39956;SDS011;48483;44.640;7.494;2024-03-23T13:27:04;21.50;;;13.30;;
39956;SDS011;48483;44.640;7.494;2024-03-23T13:29:34;17.88;;;12.82;;
39956;SDS011;48483;44.640;7.494;2024-03-23T13:32:03;18.77;;;13.90;;
39956;SDS011;48483;44.640;7.494;2024-03-23T13:34:30;18.52;;;13.52;;
39956;SDS011;48483;44.640;7.494;2024-03-23T13:36:56;17.27;;;12.93;;
39956;SDS011;48483;44.640;7.494;2024-03-23T13:39:26;18.17;;;13.40;;
39956;SDS011;48483;44.640;7.494;2024-03-23T13:41:55;21.55;;;13.48;;
39956;SDS011;48483;44.640;7.494;2024-03-23T13:44:22;19.27;;;12.30;;
39956;SDS011;48483;44.640;7.494;2024-03-23T13:46:49;16.25;;;12.43;;
39956;SDS011;48483;44.640;7.494;2024-03-23T13:49:26;18.23;;;12.27;;
39956;SDS011;48483;44.640;7.494;2024-03-23T13:51:53;17.70;;;13.20;;
39956;SDS011;48483;44.640;7.494;2024-03-23T13:54:20;20.05;;;12.32;;
39956;SDS011;48483;44.640;7.494;2024-03-23T13:56:48;17.08;;;12.10;;
39956;SDS011;48483;44.640;7.494;2024-03-23T13:59:15;15.90;;;11.13;;
39956;SDS011;48483;44.640;7.494;2024-03-23T14:01:41;14.05;;;11.27;;
39956;SDS011;48483;44.640;7.494;2024-03-23T14:04:08;18.83;;;13.38;;
39956;SDS011;48483;44.640;7.494;2024-03-23T14:06:37;16.02;;;10.60;;
39956;SDS011;48483;44.640;7.494;2024-03-23T14:09:03;14.10;;;9.63;;
39956;SDS011;48483;44.640;7.494;2024-03-23T14:11:30;14.05;;;11.00;;
39956;SDS011;48483;44.640;7.494;2024-03-23T14:13:57;14.55;;;10.55;;
39956;SDS011;48483;44.640;7.494;2024-03-23T14:16:24;16.17;;;10.63;;
39956;SDS011;48483;44.640;7.494;2024-03-23T14:18:50;12.65;;;9.75;;
39956;SDS011;48483;44.640;7.494;2024-03-23T14:21:17;16.55;;;10.65;;
39956;SDS011;48483;44.640;7.494;2024-03-23T14:23:46;14.48;;;9.48;;
39956;SDS011;48483;44.640;7.494;2024-03-23T14:26:12;14.55;;;10.18;;
39956;SDS011;48483;44.640;7.494;2024-03-23T14:28:39;15.43;;;10.77;;
39956;SDS011;48483;44.640;7.494;2024-03-23T14:31:06;14.68;;;8.88;;
39956;SDS011;48483;44.640;7.494;2024-03-23T14:33:39;15.25;;;8.93;;
39956;SDS011;48483;44.640;7.494;2024-03-23T14:36:12;14.80;;;9.07;;
39956;SDS011;48483;44.640;7.494;2024-03-23T14:38:39;15.43;;;10.10;;
39956;SDS011;48483;44.640;7.494;2024-03-23T14:41:07;11.80;;;9.13;;
39956;SDS011;48483;44.640;7.494;2024-03-23T14:43:34;14.77;;;9.88;;
39956;SDS011;48483;44.640;7.494;2024-03-23T14:46:07;12.90;;;8.05;;
39956;SDS011;48483;44.640;7.494;2024-03-23T14:48:35;12.55;;;7.70;;
39956;SDS011;48483;44.640;7.494;2024-03-23T14:51:02;11.00;;;7.25;;
39956;SDS011;48483;44.640;7.494;2024-03-23T14:53:32;14.18;;;8.20;;
39956;SDS011;48483;44.640;7.494;2024-03-23T14:55:59;10.18;;;7.50;;
39956;SDS011;48483;44.640;7.494;2024-03-23T14:58:28;11.13;;;6.68;;
39956;SDS011;48483;44.640;7.494;2024-03-23T15:00:59;10.23;;;6.20;;
39956;SDS011;48483;44.640;7.494;2024-03-23T15:03:26;10.07;;;7.05;;
39956;SDS011;48483;44.640;7.494;2024-03-23T15:05:54;9.63;;;6.97;;
39956;SDS011;48483;44.640;7.494;2024-03-23T15:08:21;9.45;;;7.65;;
39956;SDS011;48483;44.640;7.494;2024-03-23T15:10:48;11.23;;;7.35;;
39956;SDS011;48483;44.640;7.494;2024-03-23T15:13:15;10.98;;;8.27;;
39956;SDS011;48483;44.640;7.494;2024-03-23T15:15:43;10.00;;;6.95;;
39956;SDS011;48483;44.640;7.494;2024-03-23T15:18:11;11.45;;;6.80;;
39956;SDS011;48483;44.640;7.494;2024-03-23T15:20:38;13.02;;;7.95;;